createdAt,value
2023-04-18T00:01:18.680Z,96429.34
2023-04-18T00:03:47.225Z,96434.36
2023-04-18T00:06:15.406Z,96428.98
2023-04-18T00:08:43.314Z,96429.48
2023-04-18T00:11:11.223Z,96433.62
2023-04-18T00:13:40.275Z,96433.08
2023-04-18T00:16:08.786Z,96429.66
2023-04-18T00:18:37.202Z,96435.02
2023-04-18T00:21:06.495Z,96432.86
2023-04-18T00:23:35.189Z,96426.13
2023-04-18T00:26:03.257Z,96424.36
2023-04-18T00:28:31.214Z,96428.23
2023-04-18T00:30:59.178Z,96428.84
2023-04-18T00:33:27.159Z,96434.16
2023-04-18T00:35:55.136Z,96432.91
2023-04-18T00:38:23.072Z,96435.05
2023-04-18T00:40:51.401Z,96439.02
2023-04-18T00:43:23.386Z,96436.88
2023-04-18T00:45:51.422Z,96440.61
2023-04-18T00:48:20.527Z,96438.45
2023-04-18T00:50:48.528Z,96438.73
2023-04-18T00:53:16.855Z,96434.45
2023-04-18T00:55:45.357Z,96433.76
2023-04-18T00:58:13.712Z,96436.85
2023-04-18T01:00:42.698Z,96437.61
2023-04-18T01:03:15.301Z,96440.95
2023-04-18T01:05:43.413Z,96439.46
2023-04-18T01:08:11.779Z,96442.05
2023-04-18T01:10:39.910Z,96441.29
2023-04-18T01:13:20.494Z,96444.89
2023-04-18T01:15:50.676Z,96440.45
2023-04-18T01:18:19.051Z,96444.38
2023-04-18T01:20:49.382Z,96446.80
2023-04-18T01:23:18.602Z,96444.98
2023-04-18T01:25:49.381Z,96447.55
2023-04-18T01:28:21.609Z,96446.41
2023-04-18T01:30:49.881Z,96447.05
2023-04-18T01:33:17.999Z,96443.48
2023-04-18T01:35:47.752Z,96441.34
2023-04-18T01:38:15.844Z,96442.55
2023-04-18T01:40:44.199Z,96439.61
2023-04-18T01:43:12.203Z,96444.31
2023-04-18T01:45:40.144Z,96441.83
2023-04-18T01:48:09.969Z,96447.20
2023-04-18T01:50:37.926Z,96448.40
2023-04-18T01:53:06.110Z,96450.67
2023-04-18T01:55:34.009Z,96454.73
2023-04-18T01:58:01.980Z,96451.86
2023-04-18T02:00:30.190Z,96447.86
2023-04-18T02:02:59.556Z,96451.92
2023-04-18T02:05:27.843Z,96454.63
2023-04-18T02:07:56.021Z,96450.47
2023-04-18T02:10:24.105Z,96452.12
2023-04-18T02:12:52.067Z,96451.09
2023-04-18T02:15:20.933Z,96451.87
2023-04-18T02:17:49.169Z,96451.92
2023-04-18T02:20:17.157Z,96445.41
2023-04-18T02:22:45.129Z,96446.34
2023-04-18T02:25:13.038Z,96448.59
2023-04-18T02:27:41.238Z,96448.60
2023-04-18T02:30:09.653Z,96449.46
2023-04-18T02:32:37.745Z,96446.94
2023-04-18T02:35:06.180Z,96443.53
2023-04-18T02:37:34.126Z,96446.62
2023-04-18T02:40:02.127Z,96442.04
2023-04-18T02:42:32.263Z,96444.96
2023-04-18T02:45:02.289Z,96445.91
2023-04-18T02:47:33.498Z,96448.95
2023-04-18T02:50:09.269Z,96451.23
2023-04-18T02:52:37.682Z,96452.70
2023-04-18T02:55:05.997Z,96450.85
2023-04-18T02:57:37.584Z,96451.91
2023-04-18T03:00:13.681Z,96459.21
2023-04-18T03:02:41.868Z,96457.22
2023-04-18T03:05:30.198Z,96460.91
2023-04-18T03:07:59.950Z,96458.13
2023-04-18T03:10:29.016Z,96461.02
2023-04-18T03:12:57.146Z,96464.83
2023-04-18T03:15:28.245Z,96466.95
2023-04-18T03:17:56.418Z,96464.23
2023-04-18T03:20:24.954Z,96464.05
2023-04-18T03:22:53.199Z,96459.74
2023-04-18T03:25:24.876Z,96462.27
2023-04-18T03:27:54.089Z,96468.45
2023-04-18T03:30:23.478Z,96463.09
2023-04-18T03:32:56.265Z,96464.89
2023-04-18T03:35:24.458Z,96463.77
2023-04-18T03:37:53.079Z,96464.36
2023-04-18T03:40:30.297Z,96466.73
2023-04-18T03:43:02.624Z,96468.71
2023-04-18T03:45:30.685Z,96470.71
2023-04-18T03:47:59.031Z,96474.81
2023-04-18T03:50:27.210Z,96478.67
2023-04-18T03:52:55.952Z,96475.66
2023-04-18T03:55:23.919Z,96479.98
2023-04-18T03:57:52.013Z,96478.13
2023-04-18T04:00:26.228Z,96478.09
2023-04-18T04:02:59.916Z,96480.20
2023-04-18T04:05:28.290Z,96486.87
2023-04-18T04:07:57.974Z,96492.43
2023-04-18T04:10:25.942Z,96489.27
2023-04-18T04:12:54.400Z,96495.50
2023-04-18T04:15:22.664Z,96492.91
2023-04-18T04:17:58.095Z,96496.54
2023-04-18T04:20:26.845Z,96493.92
2023-04-18T04:23:02.106Z,96496.20
2023-04-18T04:25:34.102Z,96501.08
2023-04-18T04:28:06.778Z,96504.53
2023-04-18T04:30:41.748Z,96508.52
2023-04-18T04:33:09.908Z,96511.31
2023-04-18T04:35:38.947Z,96514.73
2023-04-18T04:38:09.426Z,96514.76
2023-04-18T04:40:43.692Z,96518.17
2023-04-18T04:43:15.621Z,96521.79
2023-04-18T04:45:45.226Z,96524.23
2023-04-18T04:48:13.441Z,96524.98
2023-04-18T04:50:51.705Z,96529.66
2023-04-18T04:53:19.664Z,96530.32
2023-04-18T04:55:48.402Z,96532.05
2023-04-18T04:58:17.595Z,96537.26
2023-04-18T05:01:10.060Z,96545.96
2023-04-18T05:03:38.326Z,96546.98
2023-04-18T05:06:06.614Z,96548.96
2023-04-18T05:08:34.756Z,96554.14
2023-04-18T05:11:02.722Z,96558.09
2023-04-18T05:13:30.849Z,96555.36
2023-04-18T05:15:59.334Z,96556.39
2023-04-18T05:18:27.221Z,96559.52
2023-04-18T05:20:56.007Z,96561.46
2023-04-18T05:23:24.063Z,96563.13
2023-04-18T05:25:52.471Z,96562.11
2023-04-18T05:28:20.733Z,96566.08
2023-04-18T05:30:48.926Z,96566.22
2023-04-18T05:33:17.346Z,96566.88
2023-04-18T05:35:47.454Z,96569.35
2023-04-18T05:38:15.555Z,96572.05
2023-04-18T05:40:43.797Z,96573.50
2023-04-18T05:43:11.704Z,96574.30
2023-04-18T05:45:39.640Z,96572.91
2023-04-18T05:48:07.568Z,96576.21
2023-04-18T05:50:35.556Z,96574.59
2023-04-18T05:53:03.729Z,96580.79
2023-04-18T05:55:31.873Z,96582.84
2023-04-18T05:57:59.922Z,96578.83
2023-04-18T06:00:28.476Z,96584.67
2023-04-18T06:02:56.763Z,96581.65
2023-04-18T06:05:25.203Z,96574.96
2023-04-18T06:07:53.404Z,96576.73
2023-04-18T06:10:21.464Z,96585.74
2023-04-18T06:12:49.374Z,96584.48
2023-04-18T06:15:17.456Z,96589.47
2023-04-18T06:17:45.532Z,96582.73
2023-04-18T06:20:13.584Z,96581.19
2023-04-18T06:22:41.539Z,96579.64
2023-04-18T06:25:10.223Z,96579.61
2023-04-18T06:27:38.634Z,96582.88
2023-04-18T06:30:08.029Z,96583.91
2023-04-18T06:32:36.182Z,96585.36
2023-04-18T06:35:04.588Z,96588.95
2023-04-18T06:37:32.538Z,96598.97
2023-04-18T06:40:00.482Z,96600.44
2023-04-18T06:42:28.449Z,96606.45
2023-04-18T06:44:56.806Z,96606.40
2023-04-18T06:47:24.851Z,96610.15
2023-04-18T06:49:52.781Z,96610.86
2023-04-18T06:52:20.802Z,96611.34
2023-04-18T06:54:48.737Z,96609.16
2023-04-18T06:57:16.698Z,96610.45
2023-04-18T06:59:44.680Z,96615.05
2023-04-18T07:02:13.071Z,96615.58
2023-04-18T07:04:41.604Z,96618.00
2023-04-18T07:07:09.709Z,96621.22
2023-04-18T07:09:37.640Z,96625.55
2023-04-18T07:12:05.862Z,96627.74
2023-04-18T07:14:34.315Z,96629.11
2023-04-18T07:17:02.539Z,96633.60
2023-04-18T07:19:30.712Z,96634.23
2023-04-18T07:21:58.642Z,96635.08
2023-04-18T07:24:26.747Z,96632.17
2023-04-18T07:26:55.219Z,96636.69
2023-04-18T07:29:23.337Z,96640.12
2023-04-18T07:31:51.712Z,96631.90
2023-04-18T07:34:19.726Z,96631.65
2023-04-18T07:36:47.921Z,96633.78
2023-04-18T07:39:15.917Z,96634.90
2023-04-18T07:42:04.248Z,96637.88
2023-04-18T07:44:35.731Z,96636.15
2023-04-18T07:47:03.955Z,96639.45
2023-04-18T07:49:31.904Z,96632.58
2023-04-18T07:51:59.762Z,96636.50
2023-04-18T07:54:29.592Z,96637.17
2023-04-18T07:57:00.030Z,96635.09
2023-04-18T07:59:29.743Z,96640.79
2023-04-18T08:01:58.160Z,96639.59
2023-04-18T08:04:29.063Z,96640.63
2023-04-18T08:06:58.022Z,96642.70
2023-04-18T08:09:25.938Z,96649.98
2023-04-18T08:11:56.162Z,96647.59
2023-04-18T08:14:25.012Z,96643.59
2023-04-18T08:16:53.139Z,96647.38
2023-04-18T08:19:21.078Z,96646.81
2023-04-18T08:21:51.263Z,96645.83
2023-04-18T08:24:19.324Z,96642.55
2023-04-18T08:26:47.250Z,96647.08
2023-04-18T08:29:15.372Z,96647.10
2023-04-18T08:31:43.417Z,96646.11
2023-04-18T08:34:11.335Z,96647.31
2023-04-18T08:36:39.225Z,96651.97
2023-04-18T08:39:08.012Z,96649.29
2023-04-18T08:41:39.956Z,96647.22
2023-04-18T08:44:07.996Z,96642.16
2023-04-18T08:46:36.205Z,96644.08
2023-04-18T08:49:04.994Z,96642.65
2023-04-18T08:51:34.069Z,96650.50
2023-04-18T08:54:06.290Z,96646.32
2023-04-18T08:56:37.438Z,96644.98
2023-04-18T08:59:05.435Z,96641.69
2023-04-18T09:01:59.077Z,96647.20
2023-04-18T09:04:43.268Z,96646.45
2023-04-18T09:07:18.130Z,96650.52
2023-04-18T09:09:51.031Z,96652.50
2023-04-18T09:12:22.784Z,96656.80
2023-04-18T09:18:18.050Z,96646.04
2023-04-18T09:20:46.879Z,96654.92
2023-04-18T09:23:23.844Z,96647.84
2023-04-18T09:25:51.680Z,96651.55
2023-04-18T09:28:28.530Z,96646.81
2023-04-18T09:30:57.360Z,96643.29
2023-04-18T09:33:31.751Z,96636.63
2023-04-18T09:36:20.990Z,96644.14
2023-04-18T09:38:48.849Z,96647.52
2023-04-18T09:41:17.782Z,96648.33
2023-04-18T09:43:46.538Z,96649.70
2023-04-18T09:46:14.369Z,96649.19
2023-04-18T09:48:41.285Z,96646.12
2023-04-18T09:51:15.361Z,96646.01
2023-04-18T09:53:44.195Z,96647.61
2023-04-18T09:56:27.398Z,96645.38
2023-04-18T09:59:07.504Z,96644.09
2023-04-18T10:01:35.179Z,96645.73
2023-04-18T10:04:05.686Z,96651.50
2023-04-18T10:06:34.257Z,96643.14
2023-04-18T10:09:03.796Z,96644.14
2023-04-18T10:11:31.533Z,96643.02
2023-04-18T10:14:04.089Z,96642.31
2023-04-18T10:16:33.394Z,96647.14
2023-04-18T10:19:29.767Z,96644.48
2023-04-18T10:21:58.275Z,96639.48
2023-04-18T10:24:54.017Z,96642.23
2023-04-18T10:27:48.689Z,96634.06
2023-04-18T10:30:15.954Z,96633.77
2023-04-18T10:32:42.870Z,96632.27
2023-04-18T10:35:10.300Z,96631.48
2023-04-18T10:37:50.665Z,96629.39
2023-04-18T10:40:32.591Z,96632.89
2023-04-18T10:42:59.467Z,96626.14
2023-04-18T10:45:28.236Z,96627.94
2023-04-18T10:48:24.464Z,96630.54
2023-04-18T10:51:14.130Z,96627.31
2023-04-18T10:53:55.830Z,96622.98
2023-04-18T10:56:23.099Z,96616.98
2023-04-18T10:58:52.059Z,96618.54
2023-04-18T11:01:32.077Z,96623.86
2023-04-18T11:04:00.367Z,96617.42
2023-04-18T11:06:27.170Z,96614.51
2023-04-18T11:09:13.529Z,96616.67
2023-04-18T11:11:41.053Z,96614.31
2023-04-18T11:14:07.826Z,96611.92
2023-04-18T11:16:34.932Z,96616.20
2023-04-18T11:19:18.874Z,96616.61
2023-04-18T11:21:45.489Z,96615.23
2023-04-18T11:24:20.923Z,96615.66
2023-04-18T11:26:47.541Z,96617.23
2023-04-18T11:29:17.064Z,96609.84
2023-04-18T11:31:50.750Z,96612.92
2023-04-18T11:34:17.360Z,96611.61
2023-04-18T11:36:48.825Z,96608.31
2023-04-18T11:39:15.534Z,96613.63
2023-04-18T11:41:47.574Z,96608.29
2023-04-18T11:44:15.003Z,96608.26
2023-04-18T11:46:41.699Z,96603.39
2023-04-18T11:49:27.738Z,96602.98
2023-04-18T11:51:54.799Z,96604.44
2023-04-18T11:54:44.148Z,96603.73
2023-04-18T11:57:28.096Z,96605.85
2023-04-18T11:59:57.274Z,96601.58
2023-04-18T12:02:45.169Z,96606.56
2023-04-18T12:05:23.564Z,96600.23
2023-04-18T12:07:50.679Z,96596.91
2023-04-18T12:10:20.293Z,96600.90
2023-04-18T12:12:48.683Z,96593.23
2023-04-18T12:15:17.120Z,96595.01
2023-04-18T12:17:45.467Z,96597.33
2023-04-18T12:20:12.973Z,96594.77
2023-04-18T12:22:48.977Z,96592.58
2023-04-18T12:25:25.937Z,96597.13
2023-04-18T12:27:59.634Z,96593.09
2023-04-18T12:30:26.144Z,96592.09
2023-04-18T12:32:55.424Z,96594.21
2023-04-18T12:35:22.764Z,96593.40
2023-04-18T12:37:51.604Z,96589.67
2023-04-18T12:40:19.681Z,96589.65
2023-04-18T12:42:46.850Z,96590.84
2023-04-18T12:45:15.038Z,96588.17
2023-04-18T12:47:43.830Z,96590.30
2023-04-18T12:50:14.560Z,96590.85
2023-04-18T12:52:41.820Z,96589.56
2023-04-18T12:55:09.600Z,96586.98
2023-04-18T12:57:37.519Z,96585.10
2023-04-18T13:00:09.893Z,96586.55
2023-04-18T13:02:38.245Z,96583.84
2023-04-18T13:05:07.513Z,96580.91
2023-04-18T13:07:37.042Z,96575.80
2023-04-18T13:10:04.565Z,96578.55
2023-04-18T13:12:31.188Z,96572.98
2023-04-18T13:14:57.775Z,96573.41
2023-04-18T13:17:25.241Z,96569.70
2023-04-18T13:19:51.957Z,96569.04
2023-04-18T13:22:20.317Z,96566.61
2023-04-18T13:24:47.597Z,96567.75
2023-04-18T13:27:14.706Z,96569.52
2023-04-18T13:29:43.173Z,96564.66
2023-04-18T13:32:10.073Z,96567.05
2023-04-18T13:34:39.237Z,96565.08
2023-04-18T13:37:05.826Z,96563.15
2023-04-18T13:39:33.410Z,96564.85
2023-04-18T13:42:02.336Z,96564.55
2023-04-18T13:44:32.392Z,96563.23
2023-04-18T13:47:00.185Z,96563.34
2023-04-18T13:49:27.244Z,96564.19
2023-04-18T13:51:56.478Z,96563.77
2023-04-18T13:54:25.940Z,96560.52
2023-04-18T13:56:57.234Z,96560.85
2023-04-18T13:59:27.025Z,96565.07
2023-04-18T14:01:54.470Z,96557.61
2023-04-18T14:04:21.823Z,96559.52
2023-04-18T14:06:49.388Z,96556.25
2023-04-18T14:09:16.773Z,96553.80
2023-04-18T14:11:44.092Z,96556.33
2023-04-18T14:14:10.772Z,96554.31
2023-04-18T14:16:37.324Z,96555.62
2023-04-18T14:19:03.983Z,96557.41
2023-04-18T14:21:30.539Z,96554.38
2023-04-18T14:23:57.218Z,96560.83
2023-04-18T14:26:23.982Z,96562.73
2023-04-18T14:28:50.796Z,96561.23
2023-04-18T14:31:17.472Z,96567.25
2023-04-18T14:33:44.823Z,96562.81
2023-04-18T14:36:14.265Z,96559.59
2023-04-18T14:38:41.964Z,96560.39
2023-04-18T14:41:08.605Z,96560.58
2023-04-18T14:43:35.230Z,96561.40
2023-04-18T14:46:01.884Z,96564.66
2023-04-18T14:48:29.218Z,96563.73
2023-04-18T14:50:57.612Z,96568.02
2023-04-18T14:53:25.602Z,96561.58
2023-04-18T14:55:52.227Z,96565.16
2023-04-18T14:58:19.142Z,96568.02
2023-04-18T15:00:45.933Z,96566.96
2023-04-18T15:03:12.571Z,96566.16
2023-04-18T15:05:45.888Z,96563.80
2023-04-18T15:08:13.867Z,96565.85
2023-04-18T15:10:44.102Z,96567.73
2023-04-18T15:13:10.948Z,96565.56
2023-04-18T15:15:39.241Z,96567.55
2023-04-18T15:18:07.435Z,96564.84
2023-04-18T15:20:35.508Z,96570.61
2023-04-18T15:23:02.368Z,96567.31
2023-04-18T15:25:29.860Z,96573.55
2023-04-18T15:27:57.681Z,96570.86
2023-04-18T15:30:25.115Z,96568.96
2023-04-18T15:32:53.364Z,96569.52
2023-04-18T15:35:20.289Z,96569.60
2023-04-18T15:37:46.925Z,96569.95
2023-04-18T15:40:15.677Z,96571.44
2023-04-18T15:42:43.033Z,96568.06
2023-04-18T15:45:10.450Z,96569.31
2023-04-18T15:47:37.980Z,96566.79
2023-04-18T15:50:05.170Z,96565.98
2023-04-18T15:52:31.796Z,96568.27
2023-04-18T15:54:58.651Z,96570.02
2023-04-18T15:57:25.212Z,96568.63
2023-04-18T15:59:51.866Z,96571.29
2023-04-18T16:02:18.468Z,96566.76
2023-04-18T16:04:45.322Z,96564.75
2023-04-18T16:07:12.061Z,96568.05
2023-04-18T16:09:38.730Z,96562.70
2023-04-18T16:12:06.768Z,96561.64
2023-04-18T16:14:33.589Z,96569.13
2023-04-18T16:17:00.184Z,96568.60
2023-04-18T16:19:26.743Z,96566.75
2023-04-18T16:21:53.323Z,96567.98
2023-04-18T16:24:20.021Z,96565.52
2023-04-18T16:26:46.647Z,96567.75
2023-04-18T16:29:13.228Z,96566.09
2023-04-18T16:31:41.014Z,96565.34
2023-04-18T16:34:07.604Z,96566.36
2023-04-18T16:36:34.210Z,96562.05
2023-04-18T16:39:00.938Z,96563.35
2023-04-18T16:41:27.574Z,96562.79
2023-04-18T16:43:54.279Z,96565.46
2023-04-18T16:46:20.912Z,96563.70
2023-04-18T16:48:48.174Z,96567.99
2023-04-18T16:51:15.757Z,96566.59
2023-04-18T16:53:42.571Z,96569.14
2023-04-18T16:56:09.197Z,96565.29
2023-04-18T16:58:35.768Z,96567.23
2023-04-18T17:01:02.460Z,96566.64
2023-04-18T17:03:29.506Z,96566.83
2023-04-18T17:05:56.422Z,96568.53
2023-04-18T17:08:25.125Z,96569.37
2023-04-18T17:10:52.166Z,96572.71
2023-04-18T17:13:18.861Z,96573.47
2023-04-18T17:15:45.721Z,96571.36
2023-04-18T17:18:12.364Z,96577.26
2023-04-18T17:20:39.115Z,96577.88
2023-04-18T17:23:06.026Z,96582.38
2023-04-18T17:25:32.624Z,96579.15
2023-04-18T17:28:01.574Z,96579.42
2023-04-18T17:30:28.780Z,96579.48
2023-04-18T17:32:55.570Z,96580.12
2023-04-18T17:35:22.273Z,96579.22
2023-04-18T17:37:52.216Z,96582.35
2023-04-18T17:40:19.012Z,96582.16
2023-04-18T17:42:45.851Z,96585.61
2023-04-18T17:45:12.487Z,96583.85
2023-04-18T17:47:40.124Z,96584.61
2023-04-18T17:50:07.650Z,96584.55
2023-04-18T17:52:34.402Z,96584.40
2023-04-18T17:55:01.072Z,96588.94
2023-04-18T17:57:29.864Z,96588.48
2023-04-18T17:59:56.629Z,96589.92
2023-04-18T18:02:23.326Z,96590.30
2023-04-18T18:04:50.849Z,96591.98
2023-04-18T18:07:18.048Z,96592.77
2023-04-18T18:09:44.978Z,96590.81
2023-04-18T18:12:11.792Z,96585.66
2023-04-18T18:14:39.924Z,96591.27
2023-04-18T18:17:06.882Z,96588.42
2023-04-18T18:19:35.645Z,96593.51
2023-04-18T18:22:02.486Z,96590.70
2023-04-18T18:24:29.255Z,96589.20
2023-04-18T18:26:57.455Z,96591.23
2023-04-18T18:29:24.839Z,96591.68
2023-04-18T18:31:51.584Z,96591.83
2023-04-18T18:34:19.406Z,96592.27
2023-04-18T18:36:46.762Z,96593.58
2023-04-18T18:39:15.721Z,96594.00
2023-04-18T18:41:42.712Z,96589.08
2023-04-18T18:44:09.475Z,96590.92
2023-04-18T18:46:36.274Z,96591.27
2023-04-18T18:49:03.177Z,96585.60
2023-04-18T18:51:30.306Z,96587.00
2023-04-18T18:53:57.286Z,96585.64
2023-04-18T18:56:24.124Z,96584.16
2023-04-18T18:58:53.138Z,96580.77
2023-04-18T19:01:20.068Z,96580.13
2023-04-18T19:03:47.804Z,96580.73
2023-04-18T19:06:15.233Z,96583.06
2023-04-18T19:08:41.820Z,96584.55
2023-04-18T19:11:08.984Z,96586.92
2023-04-18T19:13:35.856Z,96585.48
2023-04-18T19:16:02.574Z,96587.98
2023-04-18T19:18:29.649Z,96583.80
2023-04-18T19:20:56.976Z,96584.89
2023-04-18T19:23:24.873Z,96582.16
2023-04-18T19:25:51.603Z,96580.88
2023-04-18T19:28:18.621Z,96578.86
2023-04-18T19:30:46.054Z,96582.17
2023-04-18T19:33:12.968Z,96584.39
2023-04-18T19:35:39.936Z,96582.05
2023-04-18T19:38:06.742Z,96583.42
2023-04-18T19:40:33.445Z,96585.38
2023-04-18T19:43:00.185Z,96581.73
2023-04-18T19:45:26.824Z,96576.38
2023-04-18T19:47:53.414Z,96575.23
2023-04-18T19:50:20.107Z,96574.65
2023-04-18T19:52:47.510Z,96574.41
2023-04-18T19:55:14.089Z,96572.67
2023-04-18T19:57:41.658Z,96572.68
2023-04-18T20:00:10.558Z,96575.66
2023-04-18T20:02:41.998Z,96568.73
2023-04-18T20:05:09.263Z,96569.59
2023-04-18T20:07:36.098Z,96569.83
2023-04-18T20:10:03.805Z,96570.34
2023-04-18T20:12:30.876Z,96567.52
2023-04-18T20:14:58.255Z,96564.70
2023-04-18T20:17:25.547Z,96563.67
2023-04-18T20:19:52.998Z,96562.09
2023-04-18T20:22:19.678Z,96558.31
2023-04-18T20:24:48.004Z,96556.99
2023-04-18T20:27:18.429Z,96558.27
2023-04-18T20:29:45.603Z,96555.66
2023-04-18T20:32:12.398Z,96550.55
2023-04-18T20:34:38.925Z,96551.65
2023-04-18T20:37:09.407Z,96551.80
2023-04-18T20:39:37.354Z,96544.61
2023-04-18T20:42:04.346Z,96545.85
2023-04-18T20:44:33.756Z,96543.27
2023-04-18T20:47:01.276Z,96542.05
2023-04-18T20:49:28.908Z,96539.13
2023-04-18T20:51:55.479Z,96540.73
2023-04-18T20:54:22.320Z,96537.40
2023-04-18T20:56:48.834Z,96536.02
2023-04-18T20:59:15.645Z,96533.73
2023-04-18T21:01:42.210Z,96529.75
2023-04-18T21:04:09.526Z,96530.52
2023-04-18T21:06:36.112Z,96523.64
2023-04-18T21:09:03.222Z,96521.14
2023-04-18T21:11:30.045Z,96524.47
2023-04-18T21:13:56.636Z,96520.71
2023-04-18T21:16:23.787Z,96517.35
2023-04-18T21:18:50.615Z,96517.16
2023-04-18T21:21:17.283Z,96513.59
2023-04-18T21:23:44.607Z,96509.17
2023-04-18T21:26:12.815Z,96509.98
2023-04-18T21:28:55.960Z,96506.42
2023-04-18T21:31:23.215Z,96507.13
2023-04-18T21:33:54.663Z,96503.06
2023-04-18T21:36:22.895Z,96505.91
2023-04-18T21:38:54.101Z,96503.06
2023-04-18T21:41:21.543Z,96503.48
2023-04-18T21:43:48.816Z,96499.39
2023-04-18T21:46:16.269Z,96497.90
2023-04-18T21:48:45.383Z,96497.09
2023-04-18T21:51:13.867Z,96494.55
2023-04-18T21:53:41.205Z,96494.59
2023-04-18T21:56:08.339Z,96490.70
2023-04-18T21:58:35.117Z,96490.90
2023-04-18T22:01:02.057Z,96486.25
2023-04-18T22:03:29.375Z,96489.30
2023-04-18T22:05:56.859Z,96486.69
2023-04-18T22:08:27.744Z,96483.27
2023-04-18T22:10:55.848Z,96482.18
2023-04-18T22:13:22.942Z,96478.86
2023-04-18T22:15:51.025Z,96476.20
2023-04-18T22:18:18.303Z,96476.04
2023-04-18T22:20:46.563Z,96471.85
2023-04-18T22:23:13.744Z,96471.49
2023-04-18T22:25:40.561Z,96466.72
2023-04-18T22:28:07.377Z,96466.41
2023-04-18T22:30:34.045Z,96464.38
2023-04-18T22:33:00.667Z,96458.77
2023-04-18T22:35:27.480Z,96457.25
2023-04-18T22:37:54.944Z,96454.97
2023-04-18T22:40:21.711Z,96452.40
2023-04-18T22:42:51.096Z,96448.55
2023-04-18T22:45:18.841Z,96445.87
2023-04-18T22:47:46.006Z,96440.98
2023-04-18T22:50:13.401Z,96437.85
2023-04-18T22:52:40.558Z,96436.00
2023-04-18T22:55:08.159Z,96430.42
2023-04-18T22:57:34.848Z,96424.98
2023-04-18T23:00:01.715Z,96422.54
2023-04-18T23:02:28.546Z,96423.60
2023-04-18T23:04:58.306Z,96418.52
2023-04-18T23:07:25.128Z,96416.17
2023-04-18T23:09:51.679Z,96411.63
2023-04-18T23:12:18.269Z,96412.30
2023-04-18T23:14:45.210Z,96406.02
2023-04-18T23:17:11.773Z,96404.89
2023-04-18T23:19:38.316Z,96398.58
2023-04-18T23:22:05.369Z,96400.88
2023-04-18T23:24:31.979Z,96394.58
2023-04-18T23:26:58.711Z,96393.08
2023-04-18T23:29:25.485Z,96391.21
2023-04-18T23:31:52.079Z,96384.35
2023-04-18T23:34:18.682Z,96379.67
2023-04-18T23:36:46.189Z,96372.67
2023-04-18T23:39:12.897Z,96369.71
2023-04-18T23:41:39.569Z,96369.95
2023-04-18T23:44:06.191Z,96367.05
2023-04-18T23:46:34.390Z,96364.61
2023-04-18T23:49:03.012Z,96360.52
2023-04-18T23:51:30.406Z,96357.77
2023-04-18T23:53:57.109Z,96357.23
2023-04-18T23:56:23.858Z,96353.43
2023-04-18T23:58:50.410Z,96349.73
